createdAt,value
2016-07-07T00:00:25.166Z,1013.88
2016-07-07T00:01:25.102Z,1013.85
2016-07-07T00:02:25.091Z,1013.87
2016-07-07T00:03:25.075Z,1013.85
2016-07-07T00:04:25.065Z,1013.89
2016-07-07T00:05:25.051Z,1013.94
2016-07-07T00:06:25.038Z,1013.85
2016-07-07T00:07:25.025Z,1013.87
2016-07-07T00:08:25.011Z,1013.91
2016-07-07T00:09:24.996Z,1013.85
2016-07-07T00:10:24.981Z,1013.88
2016-07-07T00:11:24.973Z,1013.79
2016-07-07T00:12:24.959Z,1013.82
2016-07-07T00:13:24.944Z,1013.82
2016-07-07T00:14:24.931Z,1013.77
2016-07-07T00:15:24.920Z,1013.8
2016-07-07T00:16:24.905Z,1013.79
2016-07-07T00:17:25.094Z,1013.8
2016-07-07T00:18:24.874Z,1013.79
2016-07-07T00:19:24.864Z,1013.76
2016-07-07T00:20:24.856Z,1013.74
2016-07-07T00:21:24.832Z,1013.75
2016-07-07T00:22:24.819Z,1013.74
2016-07-07T00:23:24.811Z,1013.75
2016-07-07T00:24:24.799Z,1013.71
2016-07-07T00:25:24.784Z,1013.71
2016-07-07T00:26:24.777Z,1013.73
2016-07-07T00:27:24.760Z,1013.71
2016-07-07T00:28:24.746Z,1013.72
2016-07-07T00:29:24.732Z,1013.7
2016-07-07T00:30:24.714Z,1013.7
2016-07-07T00:31:24.700Z,1013.7
2016-07-07T00:32:24.685Z,1013.69
2016-07-07T00:33:24.676Z,1013.68
2016-07-07T00:34:24.661Z,1013.66
2016-07-07T00:35:24.655Z,1013.67
2016-07-07T00:36:24.635Z,1013.65
2016-07-07T00:37:24.624Z,1013.7
2016-07-07T00:38:24.614Z,1013.69
2016-07-07T00:39:24.599Z,1013.69
2016-07-07T00:40:24.584Z,1013.7
2016-07-07T00:41:24.571Z,1013.71
2016-07-07T00:42:24.558Z,1013.67
2016-07-07T00:43:24.539Z,1013.69
2016-07-07T00:44:24.531Z,1013.64
2016-07-07T00:45:24.563Z,1013.61
2016-07-07T00:46:24.503Z,1013.61
2016-07-07T00:47:24.490Z,1013.57
2016-07-07T00:48:24.477Z,1013.55
2016-07-07T00:49:24.464Z,1013.53
2016-07-07T00:50:24.455Z,1013.47
2016-07-07T00:51:24.437Z,1013.5
2016-07-07T00:52:24.472Z,1013.51
2016-07-07T00:53:24.411Z,1013.47
2016-07-07T00:54:24.396Z,1013.49
2016-07-07T00:55:24.383Z,1013.46
2016-07-07T00:56:24.367Z,1013.44
2016-07-07T00:57:24.357Z,1013.45
2016-07-07T00:58:24.342Z,1013.44
2016-07-07T00:59:24.323Z,1013.41
2016-07-07T01:00:24.312Z,1013.42
2016-07-07T01:01:24.348Z,1013.37
2016-07-07T01:02:24.287Z,1013.38
2016-07-07T01:03:24.271Z,1013.37
2016-07-07T01:04:24.258Z,1013.37
2016-07-07T01:05:24.245Z,1013.38
2016-07-07T01:06:24.229Z,1013.36
2016-07-07T01:07:24.215Z,1013.4
2016-07-07T01:08:24.201Z,1013.37
2016-07-07T01:09:24.188Z,1013.34
2016-07-07T01:10:24.173Z,1013.35
2016-07-07T01:11:24.164Z,1013.37
2016-07-07T01:12:24.149Z,1013.36
2016-07-07T01:13:24.136Z,1013.34
2016-07-07T01:14:24.120Z,1013.31
2016-07-07T01:15:24.105Z,1013.31
2016-07-07T01:16:24.092Z,1013.34
2016-07-07T01:17:24.078Z,1013.34
2016-07-07T01:18:24.068Z,1013.34
2016-07-07T01:19:24.052Z,1013.36
2016-07-07T01:20:24.041Z,1013.32
2016-07-07T01:21:24.030Z,1013.28
2016-07-07T01:22:24.009Z,1013.3
2016-07-07T01:23:24.003Z,1013.32
2016-07-07T01:24:23.979Z,1013.31
2016-07-07T01:25:23.970Z,1013.31
2016-07-07T01:26:23.956Z,1013.3
2016-07-07T01:27:23.942Z,1013.32
2016-07-07T01:28:23.930Z,1013.27
2016-07-07T01:29:23.915Z,1013.24
2016-07-07T01:30:23.902Z,1013.24
2016-07-07T01:31:23.887Z,1013.2
2016-07-07T01:32:23.867Z,1013.27
2016-07-07T01:33:23.856Z,1013.27
2016-07-07T01:34:23.846Z,1013.32
2016-07-07T01:35:23.827Z,1013.34
2016-07-07T01:36:23.818Z,1013.29
2016-07-07T01:37:23.804Z,1013.31
2016-07-07T01:38:23.791Z,1013.31
2016-07-07T01:39:23.775Z,1013.32
2016-07-07T01:40:23.763Z,1013.28
2016-07-07T01:41:23.755Z,1013.25
2016-07-07T01:42:23.734Z,1013.22
2016-07-07T01:43:23.727Z,1013.24
2016-07-07T01:44:23.708Z,1013.25
2016-07-07T01:45:23.693Z,1013.24
2016-07-07T01:46:23.680Z,1013.27
2016-07-07T01:47:23.713Z,1013.26
2016-07-07T01:48:23.648Z,1013.29
2016-07-07T01:49:23.687Z,1013.26
2016-07-07T01:50:23.625Z,1013.24
2016-07-07T01:51:23.610Z,1013.23
2016-07-07T01:52:23.599Z,1013.21
2016-07-07T01:53:23.581Z,1013.21
2016-07-07T01:54:23.567Z,1013.21
2016-07-07T01:55:23.552Z,1013.17
2016-07-07T01:56:23.540Z,1013.16
2016-07-07T01:57:23.525Z,1013.2
2016-07-07T01:58:23.512Z,1013.23
2016-07-07T01:59:23.497Z,1013.21
2016-07-07T02:00:23.486Z,1013.22
2016-07-07T02:01:23.467Z,1013.22
2016-07-07T02:02:23.457Z,1013.21
2016-07-07T02:03:23.442Z,1013.24
2016-07-07T02:04:23.429Z,1013.19
2016-07-07T02:05:23.414Z,1013.2
2016-07-07T02:06:23.400Z,1013.19
2016-07-07T02:07:23.384Z,1013.15
2016-07-07T02:08:23.372Z,1013.15
2016-07-07T02:09:23.358Z,1013.16
2016-07-07T02:10:23.348Z,1013.11
2016-07-07T02:11:23.333Z,1013.1
2016-07-07T02:12:23.316Z,1013.1
2016-07-07T02:13:23.302Z,1013.1
2016-07-07T02:14:23.288Z,1013.09
2016-07-07T02:15:23.274Z,1013.08
2016-07-07T02:16:23.259Z,1013.06
2016-07-07T02:17:23.450Z,1013.08
2016-07-07T02:18:23.228Z,1013.08
2016-07-07T02:19:23.218Z,1013.07
2016-07-07T02:20:23.252Z,1013.07
2016-07-07T02:21:23.191Z,1013.04
2016-07-07T02:22:23.177Z,1013.08
2016-07-07T02:23:23.162Z,1013.12
2016-07-07T02:24:23.149Z,1013.14
2016-07-07T02:25:23.135Z,1013.12
2016-07-07T02:26:23.120Z,1013.12
2016-07-07T02:27:23.106Z,1013.11
2016-07-07T02:28:23.087Z,1013.13
2016-07-07T02:29:23.077Z,1013.15
2016-07-07T02:30:23.063Z,1013.09
2016-07-07T02:31:23.049Z,1013.14
2016-07-07T02:32:23.031Z,1013.12
2016-07-07T02:33:23.019Z,1013.16
2016-07-07T02:34:23.004Z,1013.18
2016-07-07T02:35:22.989Z,1013.21
2016-07-07T02:36:22.977Z,1013.16
2016-07-07T02:37:22.960Z,1013.15
2016-07-07T02:38:22.943Z,1013.18
2016-07-07T02:39:22.932Z,1013.18
2016-07-07T02:40:22.920Z,1013.23
2016-07-07T02:41:22.907Z,1013.23
2016-07-07T02:42:22.891Z,1013.24
2016-07-07T02:43:22.877Z,1013.29
2016-07-07T02:44:22.864Z,1013.24
2016-07-07T02:45:22.847Z,1013.27
2016-07-07T02:46:22.829Z,1013.26
2016-07-07T02:47:22.817Z,1013.29
2016-07-07T02:48:22.804Z,1013.28
2016-07-07T02:49:22.838Z,1013.3
2016-07-07T02:50:22.779Z,1013.33
2016-07-07T02:51:22.758Z,1013.35
2016-07-07T02:52:22.750Z,1013.33
2016-07-07T02:53:22.735Z,1013.35
2016-07-07T02:54:22.717Z,1013.31
2016-07-07T02:55:22.710Z,1013.33
2016-07-07T02:56:22.693Z,1013.3
2016-07-07T02:57:22.678Z,1013.28
2016-07-07T02:58:22.665Z,1013.28
2016-07-07T02:59:22.651Z,1013.33
2016-07-07T03:00:22.636Z,1013.3
2016-07-07T03:01:22.622Z,1013.3
2016-07-07T03:02:22.602Z,1013.3
2016-07-07T03:03:22.592Z,1013.24
2016-07-07T03:04:22.580Z,1013.26
2016-07-07T03:05:22.564Z,1013.32
2016-07-07T03:06:22.551Z,1013.32
2016-07-07T03:07:22.534Z,1013.3
2016-07-07T03:08:22.526Z,1013.3
2016-07-07T03:09:22.503Z,1013.33
2016-07-07T03:10:22.493Z,1013.32
2016-07-07T03:11:22.480Z,1013.32
2016-07-07T03:12:22.461Z,1013.32
2016-07-07T03:13:22.450Z,1013.29
2016-07-07T03:14:22.437Z,1013.33
2016-07-07T03:15:22.422Z,1013.3
2016-07-07T03:16:22.408Z,1013.28
2016-07-07T03:17:22.393Z,1013.28
2016-07-07T03:18:22.383Z,1013.28
2016-07-07T03:19:22.361Z,1013.27
2016-07-07T03:20:22.346Z,1013.27
2016-07-07T03:21:22.337Z,1013.3
2016-07-07T03:22:22.319Z,1013.27
2016-07-07T03:23:22.305Z,1013.27
2016-07-07T03:24:22.290Z,1013.26
2016-07-07T03:25:22.286Z,1013.31
2016-07-07T03:26:22.261Z,1013.31
2016-07-07T03:27:22.247Z,1013.26
2016-07-07T03:28:22.233Z,1013.26
2016-07-07T03:29:22.221Z,1013.25
2016-07-07T03:30:22.204Z,1013.25
2016-07-07T03:31:22.185Z,1013.29
2016-07-07T03:32:22.177Z,1013.31
2016-07-07T03:33:22.161Z,1013.31
2016-07-07T03:34:22.147Z,1013.33
2016-07-07T03:35:22.129Z,1013.36
2016-07-07T03:36:22.119Z,1013.38
2016-07-07T03:37:22.105Z,1013.44
2016-07-07T03:38:22.085Z,1013.47
2016-07-07T03:39:22.073Z,1013.43
2016-07-07T03:40:22.061Z,1013.4
2016-07-07T03:41:22.044Z,1013.42
2016-07-07T03:42:22.025Z,1013.45
2016-07-07T03:43:22.017Z,1013.42
2016-07-07T03:44:22.001Z,1013.43
2016-07-07T03:45:21.983Z,1013.49
2016-07-07T03:46:21.969Z,1013.44
2016-07-07T03:47:21.953Z,1013.44
2016-07-07T03:48:21.942Z,1013.44
2016-07-07T03:49:21.930Z,1013.48
2016-07-07T03:50:21.914Z,1013.5
2016-07-07T03:51:21.903Z,1013.47
2016-07-07T03:52:21.888Z,1013.44
2016-07-07T03:53:21.868Z,1013.44
2016-07-07T03:54:21.852Z,1013.46
2016-07-07T03:55:21.843Z,1013.46
2016-07-07T03:56:21.829Z,1013.42
2016-07-07T03:57:21.813Z,1013.45
2016-07-07T03:58:21.798Z,1013.45
2016-07-07T03:59:21.783Z,1013.45
2016-07-07T04:00:21.768Z,1013.52
2016-07-07T04:01:21.751Z,1013.51
2016-07-07T04:02:21.737Z,1013.56
2016-07-07T04:03:21.724Z,1013.53
2016-07-07T04:04:21.708Z,1013.58
2016-07-07T04:05:21.748Z,1013.6
2016-07-07T04:06:21.682Z,1013.58
2016-07-07T04:07:21.666Z,1013.6
2016-07-07T04:08:21.657Z,1013.61
2016-07-07T04:09:21.634Z,1013.62
2016-07-07T04:10:21.625Z,1013.63
2016-07-07T04:11:21.609Z,1013.63
2016-07-07T04:12:21.591Z,1013.64
2016-07-07T04:13:21.576Z,1013.64
2016-07-07T04:14:21.563Z,1013.64
2016-07-07T04:15:21.550Z,1013.63
2016-07-07T04:16:21.539Z,1013.68
2016-07-07T04:17:21.727Z,1013.69
2016-07-07T04:18:21.512Z,1013.71
2016-07-07T04:19:21.495Z,1013.73
2016-07-07T04:20:21.485Z,1013.69
2016-07-07T04:21:21.462Z,1013.69
2016-07-07T04:22:21.453Z,1013.7
2016-07-07T04:23:21.436Z,1013.71
2016-07-07T04:24:21.422Z,1013.67
2016-07-07T04:25:21.406Z,1013.73
2016-07-07T04:26:21.391Z,1013.7
2016-07-07T04:27:21.378Z,1013.73
2016-07-07T04:28:21.363Z,1013.72
2016-07-07T04:29:21.350Z,1013.73
2016-07-07T04:30:21.335Z,1013.73
2016-07-07T04:31:21.324Z,1013.74
2016-07-07T04:32:21.310Z,1013.73
2016-07-07T04:33:21.296Z,1013.75
2016-07-07T04:34:21.279Z,1013.77
2016-07-07T04:35:21.267Z,1013.79
2016-07-07T04:36:21.251Z,1013.79
2016-07-07T04:37:21.238Z,1013.78
2016-07-07T04:38:21.226Z,1013.77
2016-07-07T04:39:21.211Z,1013.78
2016-07-07T04:40:21.193Z,1013.79
2016-07-07T04:41:21.183Z,1013.83
2016-07-07T04:42:21.166Z,1013.86
2016-07-07T04:43:21.155Z,1013.84
2016-07-07T04:44:21.143Z,1013.87
2016-07-07T04:45:21.126Z,1013.84
2016-07-07T04:46:21.114Z,1013.88
2016-07-07T04:47:21.098Z,1013.92
2016-07-07T04:48:21.079Z,1013.9
2016-07-07T04:49:21.070Z,1013.9
2016-07-07T04:50:21.051Z,1013.93
2016-07-07T04:51:21.039Z,1013.91
2016-07-07T04:52:21.075Z,1013.92
2016-07-07T04:53:21.011Z,1013.93
2016-07-07T04:54:20.995Z,1013.96
2016-07-07T04:55:20.984Z,1013.95
2016-07-07T04:56:20.969Z,1013.92
2016-07-07T04:57:20.961Z,1013.97
2016-07-07T04:58:20.941Z,1013.92
2016-07-07T04:59:20.929Z,1013.94
2016-07-07T05:00:20.928Z,1013.94
2016-07-07T05:01:20.900Z,1014
2016-07-07T05:02:20.883Z,1013.98
2016-07-07T05:03:20.871Z,1013.98
2016-07-07T05:04:20.858Z,1014.01
2016-07-07T05:05:20.847Z,1014.04
2016-07-07T05:06:20.832Z,1014.08
2016-07-07T05:07:20.816Z,1014.09
2016-07-07T05:08:20.802Z,1014.08
2016-07-07T05:09:20.790Z,1014.11
2016-07-07T05:10:20.773Z,1014.07
2016-07-07T05:11:20.761Z,1014.08
2016-07-07T05:12:20.746Z,1014.06
2016-07-07T05:13:20.735Z,1014.11
2016-07-07T05:14:20.721Z,1014.14
2016-07-07T05:15:20.708Z,1014.14
2016-07-07T05:16:20.690Z,1014.12
2016-07-07T05:17:20.675Z,1014.16
2016-07-07T05:18:20.663Z,1014.17
2016-07-07T05:19:20.654Z,1014.18
2016-07-07T05:20:20.638Z,1014.22
2016-07-07T05:21:20.623Z,1014.2
2016-07-07T05:22:20.611Z,1014.2
2016-07-07T05:23:20.601Z,1014.23
2016-07-07T05:24:20.592Z,1014.21
2016-07-07T05:25:20.574Z,1014.27
2016-07-07T05:26:20.560Z,1014.28
2016-07-07T05:27:20.546Z,1014.26
2016-07-07T05:28:20.532Z,1014.28
2016-07-07T05:29:20.518Z,1014.3
2016-07-07T05:30:20.505Z,1014.35
2016-07-07T05:31:20.493Z,1014.34
2016-07-07T05:32:20.476Z,1014.32
2016-07-07T05:33:20.471Z,1014.34
2016-07-07T05:34:20.459Z,1014.33
2016-07-07T05:35:20.443Z,1014.38
2016-07-07T05:36:20.422Z,1014.37
2016-07-07T05:37:20.411Z,1014.41
2016-07-07T05:38:20.394Z,1014.44
2016-07-07T05:39:20.384Z,1014.47
2016-07-07T05:40:20.374Z,1014.48
2016-07-07T05:41:20.357Z,1014.51
2016-07-07T05:42:20.345Z,1014.51
2016-07-07T05:43:20.331Z,1014.58
2016-07-07T05:44:20.319Z,1014.55
2016-07-07T05:45:20.305Z,1014.6
2016-07-07T05:46:20.292Z,1014.6
2016-07-07T05:47:20.279Z,1014.6
2016-07-07T05:48:20.261Z,1014.63
2016-07-07T05:49:20.252Z,1014.59
2016-07-07T05:50:20.238Z,1014.6
2016-07-07T05:51:20.226Z,1014.64
2016-07-07T05:52:20.207Z,1014.64
2016-07-07T05:53:20.199Z,1014.64
2016-07-07T05:54:20.180Z,1014.63
2016-07-07T05:55:20.172Z,1014.63
2016-07-07T05:56:20.158Z,1014.62
2016-07-07T05:57:20.148Z,1014.63
2016-07-07T05:58:20.134Z,1014.63
2016-07-07T05:59:20.119Z,1014.63
2016-07-07T06:00:20.107Z,1014.61
2016-07-07T06:01:20.099Z,1014.62
2016-07-07T06:02:20.080Z,1014.65
2016-07-07T06:03:20.067Z,1014.65
2016-07-07T06:04:20.056Z,1014.63
2016-07-07T06:05:20.043Z,1014.67
2016-07-07T06:06:20.028Z,1014.7
2016-07-07T06:07:20.015Z,1014.67
2016-07-07T06:08:20.002Z,1014.66
2016-07-07T06:09:19.988Z,1014.61
2016-07-07T06:10:19.975Z,1014.61
2016-07-07T06:11:19.966Z,1014.62
2016-07-07T06:12:19.950Z,1014.62
2016-07-07T06:13:19.939Z,1014.6
2016-07-07T06:14:19.927Z,1014.64
2016-07-07T06:15:19.916Z,1014.58
2016-07-07T06:16:19.901Z,1014.59
2016-07-07T06:17:19.888Z,1014.59
2016-07-07T06:18:19.875Z,1014.58
2016-07-07T06:19:19.863Z,1014.59
2016-07-07T06:20:19.850Z,1014.6
2016-07-07T06:21:19.838Z,1014.57
2016-07-07T06:22:19.826Z,1014.59
2016-07-07T06:23:19.815Z,1014.58
2016-07-07T06:24:19.800Z,1014.56
2016-07-07T06:25:19.790Z,1014.6
2016-07-07T06:26:19.778Z,1014.59
2016-07-07T06:27:19.764Z,1014.58
2016-07-07T06:28:19.753Z,1014.58
2016-07-07T06:29:19.740Z,1014.58
2016-07-07T06:30:19.725Z,1014.62
2016-07-07T06:31:19.715Z,1014.57
2016-07-07T06:32:19.700Z,1014.55
2016-07-07T06:33:19.691Z,1014.58
2016-07-07T06:34:19.678Z,1014.59
2016-07-07T06:35:19.674Z,1014.64
2016-07-07T06:36:19.655Z,1014.69
2016-07-07T06:37:19.647Z,1014.74
2016-07-07T06:38:19.628Z,1014.78
2016-07-07T06:39:19.621Z,1014.77
2016-07-07T06:40:19.610Z,1014.77
2016-07-07T06:41:19.598Z,1014.78
2016-07-07T06:42:19.585Z,1014.77
2016-07-07T06:43:19.574Z,1014.74
2016-07-07T06:44:19.564Z,1014.75
2016-07-07T06:45:19.550Z,1014.74
2016-07-07T06:46:19.531Z,1014.73
2016-07-07T06:47:19.522Z,1014.72
2016-07-07T06:48:19.513Z,1014.72
2016-07-07T06:49:19.501Z,1014.71
2016-07-07T06:50:19.489Z,1014.72
2016-07-07T06:51:19.479Z,1014.74
2016-07-07T06:52:19.467Z,1014.76
2016-07-07T06:53:19.454Z,1014.71
2016-07-07T06:54:19.443Z,1014.7
2016-07-07T06:55:19.432Z,1014.78
2016-07-07T06:56:19.417Z,1014.79
2016-07-07T06:57:19.404Z,1014.8
2016-07-07T06:58:19.395Z,1014.79
2016-07-07T06:59:19.389Z,1014.77
2016-07-07T07:00:19.378Z,1014.76
2016-07-07T07:01:19.361Z,1014.77
2016-07-07T07:02:19.349Z,1014.84
2016-07-07T07:03:19.336Z,1014.78
2016-07-07T07:04:19.326Z,1014.77
2016-07-07T07:05:19.317Z,1014.77
2016-07-07T07:06:19.304Z,1014.72
2016-07-07T07:07:19.294Z,1014.71
2016-07-07T07:08:19.280Z,1014.76
2016-07-07T07:09:19.270Z,1014.7
2016-07-07T07:10:19.256Z,1014.71
2016-07-07T07:11:19.246Z,1014.68
2016-07-07T07:12:19.232Z,1014.73
2016-07-07T07:13:19.224Z,1014.73
2016-07-07T07:14:19.213Z,1014.74
2016-07-07T07:15:19.201Z,1014.71
2016-07-07T07:16:19.190Z,1014.74
2016-07-07T07:17:19.180Z,1014.72
2016-07-07T07:18:19.170Z,1014.74
2016-07-07T07:19:19.160Z,1014.74
2016-07-07T07:20:19.147Z,1014.79
2016-07-07T07:21:19.142Z,1014.77
2016-07-07T07:22:19.134Z,1014.8
2016-07-07T07:23:19.122Z,1014.82
2016-07-07T07:24:19.115Z,1014.81
2016-07-07T07:25:19.104Z,1014.8
2016-07-07T07:26:19.099Z,1014.86
2016-07-07T07:27:19.089Z,1014.81
2016-07-07T07:28:19.079Z,1014.83
2016-07-07T07:29:19.074Z,1014.81
2016-07-07T07:30:19.067Z,1014.8
2016-07-07T07:31:19.062Z,1014.8
2016-07-07T07:32:19.049Z,1014.75
2016-07-07T07:33:19.048Z,1014.76
2016-07-07T07:34:19.037Z,1014.76
2016-07-07T07:35:19.035Z,1014.79
2016-07-07T07:36:19.027Z,1014.76
2016-07-07T07:37:19.021Z,1014.81
2016-07-07T07:38:19.015Z,1014.8
2016-07-07T07:39:19.008Z,1014.77
2016-07-07T07:40:19.000Z,1014.74
2016-07-07T07:41:18.993Z,1014.75
2016-07-07T07:42:18.987Z,1014.78
2016-07-07T07:43:18.997Z,1014.77
2016-07-07T07:44:18.975Z,1014.74
2016-07-07T07:45:18.974Z,1014.75
2016-07-07T07:46:18.963Z,1014.72
2016-07-07T07:47:18.963Z,1014.71
2016-07-07T07:48:18.959Z,1014.68
2016-07-07T07:49:18.953Z,1014.71
2016-07-07T07:50:18.944Z,1014.66
2016-07-07T07:51:18.938Z,1014.67
2016-07-07T07:52:18.938Z,1014.64
2016-07-07T07:53:18.932Z,1014.68
2016-07-07T07:54:18.930Z,1014.71
2016-07-07T07:55:18.926Z,1014.68
2016-07-07T07:56:18.919Z,1014.68
2016-07-07T07:57:18.915Z,1014.69
2016-07-07T07:58:18.914Z,1014.65
2016-07-07T07:59:18.960Z,1014.66
2016-07-07T08:00:18.906Z,1014.61
2016-07-07T08:01:18.904Z,1014.59
2016-07-07T08:02:18.899Z,1014.62
2016-07-07T08:03:18.890Z,1014.58
2016-07-07T08:04:18.893Z,1014.66
2016-07-07T08:05:18.886Z,1014.66
2016-07-07T08:06:18.890Z,1014.6
2016-07-07T08:07:18.883Z,1014.65
2016-07-07T08:08:18.879Z,1014.55
2016-07-07T08:09:18.875Z,1014.58
2016-07-07T08:10:18.876Z,1014.56
2016-07-07T08:11:18.871Z,1014.59
2016-07-07T08:12:18.871Z,1014.6
2016-07-07T08:13:18.864Z,1014.66
2016-07-07T08:14:18.867Z,1014.58
2016-07-07T08:15:18.860Z,1014.58
2016-07-07T08:16:18.858Z,1014.54
2016-07-07T08:17:18.857Z,1014.57
2016-07-07T08:18:18.859Z,1014.57
2016-07-07T08:19:18.853Z,1014.59
2016-07-07T08:20:18.850Z,1014.56
2016-07-07T08:21:18.851Z,1014.59
2016-07-07T08:22:18.847Z,1014.57
2016-07-07T08:23:18.848Z,1014.51
2016-07-07T08:24:18.843Z,1014.51
2016-07-07T08:25:18.837Z,1014.51
2016-07-07T08:26:18.838Z,1014.49
2016-07-07T08:27:18.834Z,1014.52
2016-07-07T08:28:18.834Z,1014.51
2016-07-07T08:29:18.839Z,1014.55
2016-07-07T08:30:18.834Z,1014.53
2016-07-07T08:31:18.834Z,1014.53
2016-07-07T08:32:18.833Z,1014.55
2016-07-07T08:33:18.829Z,1014.58
2016-07-07T08:34:18.831Z,1014.58
2016-07-07T08:35:18.828Z,1014.61
2016-07-07T08:36:18.829Z,1014.63
2016-07-07T08:37:18.827Z,1014.57
2016-07-07T08:38:18.822Z,1014.56
2016-07-07T08:39:18.819Z,1014.52
2016-07-07T08:40:18.824Z,1014.56
2016-07-07T08:41:18.826Z,1014.6
2016-07-07T08:42:18.822Z,1014.62
2016-07-07T08:43:18.819Z,1014.59
2016-07-07T08:44:18.819Z,1014.59
2016-07-07T08:45:18.824Z,1014.56
2016-07-07T08:46:18.822Z,1014.6
2016-07-07T08:47:18.823Z,1014.6
2016-07-07T08:48:18.823Z,1014.64
2016-07-07T08:49:18.817Z,1014.65
2016-07-07T08:50:18.825Z,1014.57
2016-07-07T08:51:18.822Z,1014.5
2016-07-07T08:52:18.820Z,1014.43
2016-07-07T08:53:18.823Z,1014.44
2016-07-07T08:54:18.823Z,1014.54
2016-07-07T08:55:18.823Z,1014.55
2016-07-07T08:56:18.822Z,1014.48
2016-07-07T08:57:18.821Z,1014.44
2016-07-07T08:58:18.819Z,1014.4
2016-07-07T08:59:18.815Z,1014.36
2016-07-07T09:00:18.817Z,1014.35
2016-07-07T09:01:18.815Z,1014.38
2016-07-07T09:02:18.812Z,1014.42
2016-07-07T09:03:18.810Z,1014.4
2016-07-07T09:04:18.805Z,1014.44
2016-07-07T09:05:18.801Z,1014.45
2016-07-07T09:06:18.801Z,1014.44
2016-07-07T09:07:18.802Z,1014.52
2016-07-07T09:08:18.795Z,1014.68
2016-07-07T09:09:18.793Z,1014.64
2016-07-07T09:10:18.790Z,1014.66
2016-07-07T09:11:18.784Z,1014.6
2016-07-07T09:12:18.791Z,1014.71
2016-07-07T09:13:18.778Z,1014.7
2016-07-07T09:14:18.776Z,1014.74
2016-07-07T09:15:18.773Z,1014.72
2016-07-07T09:16:18.776Z,1014.75
2016-07-07T09:17:18.781Z,1014.75
2016-07-07T09:18:18.775Z,1014.76
2016-07-07T09:19:18.772Z,1014.74
2016-07-07T09:20:18.770Z,1014.74
2016-07-07T09:21:18.773Z,1014.82
2016-07-07T09:22:18.763Z,1014.79
2016-07-07T09:23:18.765Z,1014.82
2016-07-07T09:24:18.766Z,1014.81
2016-07-07T09:25:18.768Z,1014.8
2016-07-07T09:26:18.766Z,1014.82
2016-07-07T09:27:18.763Z,1014.81
2016-07-07T09:28:18.763Z,1014.74
2016-07-07T09:29:18.762Z,1014.79
2016-07-07T09:30:18.765Z,1014.75
2016-07-07T09:31:18.767Z,1014.76
2016-07-07T09:32:18.772Z,1014.67
2016-07-07T09:33:18.764Z,1014.66
2016-07-07T09:34:18.765Z,1014.66
2016-07-07T09:35:18.771Z,1014.39
2016-07-07T09:36:18.770Z,1014.49
2016-07-07T09:37:18.771Z,1014.36
2016-07-07T09:38:18.767Z,1014.44
2016-07-07T09:39:18.768Z,1014.37
2016-07-07T09:40:18.775Z,1014.31
2016-07-07T09:41:18.769Z,1014.32
2016-07-07T09:42:18.774Z,1014.34
2016-07-07T09:43:18.773Z,1014.44
2016-07-07T09:44:18.772Z,1014.52
2016-07-07T09:45:18.772Z,1014.63
2016-07-07T09:46:18.770Z,1014.72
2016-07-07T09:47:18.772Z,1014.73
2016-07-07T09:48:18.770Z,1014.71
2016-07-07T09:49:18.764Z,1014.73
2016-07-07T09:50:18.777Z,1014.7
2016-07-07T09:51:18.769Z,1014.64
2016-07-07T09:52:18.768Z,1014.64
2016-07-07T09:53:18.765Z,1014.6
2016-07-07T09:54:18.769Z,1014.65
2016-07-07T09:55:18.769Z,1014.61
2016-07-07T09:56:18.770Z,1014.61
2016-07-07T09:57:18.771Z,1014.58
2016-07-07T09:58:18.772Z,1014.55
2016-07-07T09:59:18.768Z,1014.57
2016-07-07T10:00:18.769Z,1014.56
2016-07-07T10:01:18.770Z,1014.57
2016-07-07T10:02:18.772Z,1014.58
2016-07-07T10:03:18.778Z,1014.53
2016-07-07T10:04:18.776Z,1014.46
2016-07-07T10:05:18.777Z,1014.28
2016-07-07T10:06:18.776Z,1013.93
2016-07-07T10:07:18.786Z,1013.84
2016-07-07T10:08:18.838Z,1013.85
2016-07-07T10:09:18.784Z,1013.89
2016-07-07T10:10:18.787Z,1013.85
2016-07-07T10:11:18.795Z,1013.85
2016-07-07T10:12:18.798Z,1013.82
2016-07-07T10:13:18.794Z,1013.76
2016-07-07T10:14:18.796Z,1013.82
2016-07-07T10:15:18.799Z,1013.92
2016-07-07T10:16:18.807Z,1013.87
2016-07-07T10:17:18.807Z,1013.89
2016-07-07T10:18:19.013Z,1013.84
2016-07-07T10:19:18.814Z,1013.9
2016-07-07T10:20:18.820Z,1013.91
2016-07-07T10:21:18.816Z,1013.85
2016-07-07T10:22:18.821Z,1013.88
2016-07-07T10:23:18.824Z,1013.94
2016-07-07T10:24:18.824Z,1013.95
2016-07-07T10:25:18.823Z,1013.95
2016-07-07T10:26:18.835Z,1013.95
2016-07-07T10:27:18.837Z,1013.9
2016-07-07T10:28:18.841Z,1013.92
2016-07-07T10:29:18.842Z,1013.88
2016-07-07T10:30:18.839Z,1013.85
2016-07-07T10:31:18.845Z,1013.88
2016-07-07T10:32:18.846Z,1013.9
2016-07-07T10:33:18.849Z,1013.99
2016-07-07T10:34:18.854Z,1014.03
2016-07-07T10:35:18.856Z,1014.01
2016-07-07T10:36:18.859Z,1014.03
2016-07-07T10:37:18.857Z,1014.02
2016-07-07T10:38:18.867Z,1014.02
2016-07-07T10:39:18.869Z,1013.92
2016-07-07T10:40:18.872Z,1013.96
2016-07-07T10:41:18.874Z,1013.92
2016-07-07T10:42:18.876Z,1013.99
2016-07-07T10:43:18.880Z,1013.95
2016-07-07T10:44:18.885Z,1014.01
2016-07-07T10:45:18.887Z,1014.08
2016-07-07T10:46:18.889Z,1014.15
2016-07-07T10:47:18.890Z,1014.21
2016-07-07T10:48:18.893Z,1014.23
2016-07-07T10:49:18.900Z,1014.19
2016-07-07T10:50:18.901Z,1014.2
2016-07-07T10:51:18.902Z,1014.12
2016-07-07T10:52:18.911Z,1014.05
2016-07-07T10:53:18.912Z,1014.07
2016-07-07T10:54:18.915Z,1014.08
2016-07-07T10:55:18.919Z,1014.04
2016-07-07T10:56:18.924Z,1014.01
2016-07-07T10:57:18.925Z,1014.07
2016-07-07T10:58:18.930Z,1014.03
2016-07-07T10:59:18.931Z,1014.03
2016-07-07T11:00:18.947Z,1014.01
2016-07-07T11:01:18.933Z,1013.98
2016-07-07T11:02:18.944Z,1013.9
2016-07-07T11:03:18.951Z,1013.9
2016-07-07T11:04:18.950Z,1013.88
2016-07-07T11:05:18.953Z,1013.93
2016-07-07T11:06:18.959Z,1013.93
2016-07-07T11:07:18.963Z,1013.92
2016-07-07T11:08:18.965Z,1013.89
2016-07-07T11:09:18.970Z,1013.88
2016-07-07T11:10:18.972Z,1013.86
2016-07-07T11:11:18.973Z,1013.87
2016-07-07T11:12:18.981Z,1013.86
2016-07-07T11:13:18.985Z,1013.84
2016-07-07T11:14:18.993Z,1013.82
2016-07-07T11:15:18.991Z,1013.82
2016-07-07T11:16:18.996Z,1013.84
2016-07-07T11:17:19.000Z,1013.86
2016-07-07T11:18:18.999Z,1013.82
2016-07-07T11:19:19.006Z,1013.79
2016-07-07T11:20:19.013Z,1013.79
2016-07-07T11:21:19.016Z,1013.76
2016-07-07T11:22:19.021Z,1013.82
2016-07-07T11:23:19.023Z,1013.87
2016-07-07T11:24:19.027Z,1013.78
2016-07-07T11:25:19.030Z,1013.76
2016-07-07T11:26:19.033Z,1013.78
2016-07-07T11:27:19.039Z,1013.76
2016-07-07T11:28:19.042Z,1013.81
2016-07-07T11:29:19.047Z,1013.78
2016-07-07T11:30:19.049Z,1013.81
2016-07-07T11:31:19.054Z,1013.77
2016-07-07T11:32:19.059Z,1013.76
2016-07-07T11:33:19.066Z,1013.75
2016-07-07T11:34:19.065Z,1013.76
2016-07-07T11:35:19.070Z,1013.75
2016-07-07T11:36:19.072Z,1013.73
2016-07-07T11:37:19.073Z,1013.71
2016-07-07T11:38:19.077Z,1013.64
2016-07-07T11:39:19.080Z,1013.7
2016-07-07T11:40:19.085Z,1013.69
2016-07-07T11:41:19.088Z,1013.7
2016-07-07T11:42:19.095Z,1013.7
2016-07-07T11:43:19.094Z,1013.65
2016-07-07T11:44:19.098Z,1013.59
2016-07-07T11:45:19.100Z,1013.62
2016-07-07T11:46:19.101Z,1013.58
2016-07-07T11:47:19.109Z,1013.59
2016-07-07T11:48:19.111Z,1013.57
2016-07-07T11:49:19.113Z,1013.63
2016-07-07T11:50:19.118Z,1013.61
2016-07-07T11:51:19.122Z,1013.63
2016-07-07T11:52:19.124Z,1013.63
2016-07-07T11:53:19.127Z,1013.61
2016-07-07T11:54:19.136Z,1013.6
2016-07-07T11:55:19.134Z,1013.59
2016-07-07T11:56:19.138Z,1013.56
2016-07-07T11:57:19.141Z,1013.55
2016-07-07T11:58:19.145Z,1013.52
2016-07-07T11:59:19.148Z,1013.55
2016-07-07T12:00:19.151Z,1013.55
2016-07-07T12:01:19.155Z,1013.54
2016-07-07T12:02:19.158Z,1013.54
2016-07-07T12:03:19.163Z,1013.59
2016-07-07T12:04:19.169Z,1013.6
2016-07-07T12:05:19.165Z,1013.57
2016-07-07T12:06:19.172Z,1013.59
2016-07-07T12:07:19.178Z,1013.6
2016-07-07T12:08:19.177Z,1013.59